Terminal Aerodrome Forecast
Issued by NWS Wilmington, OH

Home | Current Version | Previous Version | Text Only | Print | Product List | Glossary On
Versions: 1 2 3 4 5 6 7 8 9 10 11 12 13 14 15 16 17 18 19 20
250
FTUS41 KILN 091410 AAA
TAFILN
TAF AMD
KILN 091410Z 0914/1012 25014KT 2SM -SN BKN012 OVC025
     FM091700 27012G20KT 5SM -SHSN BKN012 OVC022
     FM100000 27012KT P6SM VCSH OVC025=

USA.gov is the U.S. government's official web portal to all federal, state and local government web resources and services.